Time;durP1;ratioP1;P1;durP2;ratioP2;P2;SDS_P1;SDS_P2;PMS_P1;PMS_P2;Temp;Humidity;BMP_temperature;BMP_pressure;BME280_temperature;BME280_humidity;BME280_pressure;Samples;Min_cycle;Max_cycle;Signal;HPM_P1;HPM_P2
2022/05/09 00:01:39;;;;;;;12.53;11.33;;;13.20;96.70;;;;;;5099283;28;20800;-45
2022/05/09 00:04:05;;;;;;;11.70;10.60;;;13.20;96.70;;;;;;5099359;28;20407;-45
2022/05/09 00:06:30;;;;;;;10.30;9.50;;;13.20;96.70;;;;;;5099749;28;20435;-44
2022/05/09 00:08:56;;;;;;;10.80;9.90;;;13.10;96.80;;;;;;5098435;28;20696;-44
2022/05/09 00:11:22;;;;;;;11.33;10.23;;;13.10;96.90;;;;;;5099223;28;20184;-44
2022/05/09 00:13:48;;;;;;;11.07;10.13;;;13.00;96.90;;;;;;5099391;28;20201;-45
2022/05/09 00:16:13;;;;;;;11.43;10.47;;;13.00;97.00;;;;;;5099531;28;20182;-42
2022/05/09 00:18:39;;;;;;;11.70;10.70;;;12.90;97.00;;;;;;5098900;28;20231;-45
2022/05/09 00:21:05;;;;;;;11.33;10.33;;;12.90;97.10;;;;;;5099050;28;20221;-45
2022/05/09 00:23:31;;;;;;;12.63;11.17;;;12.90;97.20;;;;;;5098753;28;20797;-44
2022/05/09 00:25:57;;;;;;;13.13;12.03;;;12.80;97.20;;;;;;5098888;28;20437;-45
2022/05/09 00:28:23;;;;;;;10.60;9.70;;;12.80;97.30;;;;;;5098806;28;20182;-45
2022/05/09 00:30:49;;;;;;;11.57;10.67;;;12.70;97.30;;;;;;5098684;28;20881;-44
2022/05/09 00:33:15;;;;;;;11.27;10.27;;;12.70;97.40;;;;;;5098481;28;20474;-44
2022/05/09 00:35:44;;;;;;;11.67;10.67;;;12.60;97.40;;;;;;5080421;28;20192;-46
2022/05/09 00:38:10;;;;;;;11.33;10.20;;;12.60;97.40;;;;;;5099149;28;20299;-44
2022/05/09 00:40:39;;;;;;;11.07;10.17;;;12.60;97.40;;;;;;5098148;28;20464;-44
2022/05/09 00:43:28;;;;;;;10.93;10.03;;;12.50;97.50;;;;;;5098890;28;20404;-44
2022/05/09 00:45:54;;;;;;;11.97;10.77;;;12.50;97.60;;;;;;5098921;28;20766;-44
2022/05/09 00:48:20;;;;;;;11.40;10.50;;;12.40;97.50;;;;;;5098274;28;20416;-44
2022/05/09 00:50:45;;;;;;;11.03;10.13;;;12.40;97.50;;;;;;5098081;28;20785;-44
2022/05/09 00:53:12;;;;;;;11.23;10.33;;;12.40;97.50;;;;;;5098961;28;20462;-44
2022/05/09 00:55:47;;;;;;;12.70;11.60;;;12.30;97.50;;;;;;5098751;28;20261;-44
2022/05/09 00:58:32;;;;;;;11.47;10.57;;;12.30;97.50;;;;;;5080872;28;20416;-44
2022/05/09 01:00:58;;;;;;;12.07;10.97;;;12.30;97.60;;;;;;5098270;28;20526;-44
2022/05/09 01:03:24;;;;;;;12.53;11.30;;;12.30;97.60;;;;;;5098304;28;20512;-44
2022/05/09 01:05:53;;;;;;;11.77;10.73;;;12.30;97.60;;;;;;5098111;28;20464;-44
2022/05/09 01:08:19;;;;;;;12.37;11.20;;;12.20;97.60;;;;;;5080892;28;20246;-45
2022/05/09 01:10:45;;;;;;;11.80;10.80;;;12.20;97.60;;;;;;5080999;28;20456;-44
2022/05/09 01:13:12;;;;;;;11.87;10.77;;;12.10;97.60;;;;;;5080323;28;20928;-44
2022/05/09 01:15:40;;;;;;;12.20;11.10;;;12.10;97.70;;;;;;5098667;28;20448;-44
2022/05/09 01:18:08;;;;;;;11.83;10.83;;;12.10;97.70;;;;;;5098106;28;20841;-47
2022/05/09 01:20:33;;;;;;;12.37;11.27;;;12.00;97.70;;;;;;5098470;28;20487;-45
2022/05/09 01:23:00;;;;;;;12.10;11.07;;;12.00;97.80;;;;;;5098300;28;20529;-44
2022/05/09 01:25:28;;;;;;;12.53;11.43;;;11.90;97.80;;;;;;5080008;28;20238;-45
2022/05/09 01:27:53;;;;;;;11.40;10.50;;;11.90;97.80;;;;;;5098299;28;20436;-44
2022/05/09 01:30:21;;;;;;;13.37;12.27;;;11.80;97.80;;;;;;5097757;28;20470;-44
2022/05/09 01:33:00;;;;;;;11.00;10.20;;;11.80;97.90;;;;;;5080308;28;20232;-44
2022/05/09 01:35:41;;;;;;;13.30;12.00;;;11.80;97.90;;;;;;5098261;28;20822;-45
2022/05/09 01:38:18;;;;;;;11.80;10.70;;;11.70;98.00;;;;;;5098325;28;20669;-45
2022/05/09 01:40:43;;;;;;;12.70;11.60;;;11.70;98.10;;;;;;5098166;28;20544;-45
2022/05/09 01:43:10;;;;;;;12.37;11.30;;;11.70;98.10;;;;;;5097550;28;20443;-45
2022/05/09 01:45:35;;;;;;;12.10;11.10;;;11.70;98.20;;;;;;5097780;28;20268;-44
2022/05/09 01:51:23;;;;;;;12.77;11.43;;;11.60;98.30;;;;;;5099469;28;20184;-44
2022/05/09 01:53:52;;;;;;;13.53;10.97;;;11.50;98.20;;;;;;5101472;28;20532;-45
2022/05/09 01:56:20;;;;;;;11.50;10.40;;;11.50;98.20;;;;;;5101488;28;20414;-44
2022/05/09 01:58:46;;;;;;;12.00;10.93;;;11.50;98.30;;;;;;5102075;28;20465;-44
2022/05/09 02:01:11;;;;;;;12.00;10.90;;;11.40;98.30;;;;;;5101735;28;20471;-44
2022/05/09 02:03:37;;;;;;;12.70;11.60;;;11.30;98.20;;;;;;5084067;28;20432;-44
2022/05/09 02:06:03;;;;;;;13.00;11.90;;;11.30;98.30;;;;;;5101517;28;20509;-44
2022/05/09 02:08:30;;;;;;;12.07;10.97;;;11.30;98.30;;;;;;5101431;28;20195;-44
2022/05/09 02:10:56;;;;;;;12.73;11.73;;;11.30;98.40;;;;;;5083554;28;20425;-45
2022/05/09 02:13:21;;;;;;;12.50;11.40;;;11.30;98.40;;;;;;5101282;28;21200;-44
2022/05/09 02:15:47;;;;;;;13.30;12.10;;;11.30;98.40;;;;;;5101441;28;20180;-45
2022/05/09 02:18:13;;;;;;;11.73;10.73;;;11.30;98.50;;;;;;5101244;28;20491;-44
2022/05/09 02:20:38;;;;;;;12.43;11.43;;;11.20;98.80;;;;;;5101311;28;20242;-44
2022/05/09 02:23:05;;;;;;;12.17;11.17;;;11.10;98.40;;;;;;5101452;28;20265;-44
2022/05/09 02:25:31;;;;;;;13.30;12.20;;;11.10;98.40;;;;;;5083466;28;20197;-44
2022/05/09 02:28:01;;;;;;;14.30;12.93;;;11.10;98.50;;;;;;5101516;28;20426;-43
2022/05/09 02:30:28;;;;;;;13.10;12.00;;;11.10;98.50;;;;;;5101359;28;20312;-44
2022/05/09 02:32:54;;;;;;;11.83;10.83;;;11.10;98.50;;;;;;5101548;28;20481;-45
2022/05/09 02:35:21;;;;;;;12.53;11.33;;;11.00;98.50;;;;;;5101115;28;20815;-44
2022/05/09 02:37:48;;;;;;;11.53;10.53;;;11.00;98.60;;;;;;5083275;28;20555;-45
2022/05/09 02:40:15;;;;;;;12.00;11.00;;;11.00;98.70;;;;;;5100921;28;20415;-44
2022/05/09 02:42:41;;;;;;;14.03;12.73;;;10.90;98.70;;;;;;5082858;28;20434;-45
2022/05/09 02:45:07;;;;;;;12.43;11.23;;;10.90;98.80;;;;;;5101114;28;20657;-44
2022/05/09 02:47:33;;;;;;;14.00;12.90;;;10.90;98.80;;;;;;5100891;28;20251;-45
2022/05/09 02:49:59;;;;;;;13.40;12.10;;;10.90;98.80;;;;;;5100838;28;20832;-44
2022/05/09 02:52:24;;;;;;;12.70;11.60;;;10.80;98.80;;;;;;5100575;28;20207;-44
2022/05/09 02:54:50;;;;;;;15.07;13.50;;;10.80;98.90;;;;;;5100816;28;20177;-44
2022/05/09 02:57:16;;;;;;;13.80;12.70;;;10.80;98.90;;;;;;5100373;28;20181;-43
2022/05/09 02:59:41;;;;;;;13.70;12.40;;;10.80;98.90;;;;;;5100628;28;20254;-45
2022/05/09 03:02:08;;;;;;;12.83;11.67;;;10.80;98.90;;;;;;5099578;28;20268;-42
2022/05/09 03:04:40;;;;;;;14.03;12.83;;;10.80;98.80;;;;;;5101206;28;20178;-45
2022/05/09 03:07:17;;;;;;;14.77;13.30;;;10.80;98.90;;;;;;5100460;28;20746;-45
2022/05/09 03:09:45;;;;;;;13.87;12.67;;;10.80;98.90;;;;;;5100570;28;20402;-45
2022/05/09 03:12:11;;;;;;;12.80;11.70;;;10.70;98.90;;;;;;5100431;28;20423;-44
2022/05/09 03:14:38;;;;;;;13.17;11.83;;;10.70;98.90;;;;;;5100418;28;20684;-43
2022/05/09 03:17:06;;;;;;;13.97;12.77;;;10.70;99.00;;;;;;5100006;28;20425;-44
2022/05/09 03:19:31;;;;;;;13.37;12.27;;;10.70;99.00;;;;;;5100502;28;20426;-45
2022/05/09 03:21:57;;;;;;;14.70;13.50;;;10.70;99.00;;;;;;5100217;28;20431;-42
2022/05/09 03:24:23;;;;;;;12.23;11.23;;;10.60;98.90;;;;;;5100104;28;20466;-45
2022/05/09 03:26:49;;;;;;;14.13;12.90;;;10.60;98.90;;;;;;5100156;28;20184;-46
2022/05/09 03:29:18;;;;;;;12.93;11.73;;;10.60;98.80;;;;;;5100003;28;20430;-45
2022/05/09 03:31:45;;;;;;;13.13;12.03;;;10.50;98.80;;;;;;5099296;28;20481;-42
2022/05/09 03:34:11;;;;;;;14.37;13.07;;;10.50;98.80;;;;;;5099928;28;20467;-44
2022/05/09 03:36:37;;;;;;;13.10;11.97;;;10.50;98.80;;;;;;5100074;28;20431;-43
2022/05/09 03:39:03;;;;;;;13.10;12.00;;;10.50;98.70;;;;;;5100006;28;20430;-44
2022/05/09 03:41:28;;;;;;;13.00;11.80;;;10.40;98.60;;;;;;5099874;28;20691;-44
2022/05/09 03:43:54;;;;;;;13.80;12.53;;;10.40;98.60;;;;;;5099719;28;20642;-44
2022/05/09 03:46:20;;;;;;;13.20;11.90;;;10.40;98.60;;;;;;5099617;28;20187;-44
2022/05/09 03:48:45;;;;;;;14.00;12.80;;;10.40;98.60;;;;;;5099514;28;20181;-44
2022/05/09 03:51:11;;;;;;;13.73;12.53;;;10.40;98.70;;;;;;5099445;28;20206;-45
2022/05/09 03:53:37;;;;;;;12.60;11.50;;;10.40;98.80;;;;;;5098412;28;20254;-43
2022/05/09 03:56:03;;;;;;;12.93;11.30;;;10.40;98.80;;;;;;5097563;28;20202;-44
2022/05/09 03:58:29;;;;;;;12.40;11.27;;;10.40;98.90;;;;;;5098262;28;20434;-44
2022/05/09 04:00:55;;;;;;;12.93;11.73;;;10.30;98.80;;;;;;5097786;28;20418;-44
2022/05/09 04:03:21;;;;;;;13.70;12.30;;;10.30;98.90;;;;;;5096926;28;20441;-44
2022/05/09 04:05:46;;;;;;;13.07;11.97;;;10.30;98.90;;;;;;5097099;28;20176;-44
2022/05/09 04:08:18;;;;;;;13.70;12.50;;;10.30;98.90;;;;;;5078240;28;20475;-43
2022/05/09 04:10:45;;;;;;;13.10;11.97;;;10.30;98.90;;;;;;5096652;28;20173;-44
2022/05/09 04:13:11;;;;;;;13.33;12.23;;;10.30;99.00;;;;;;5077962;28;20475;-44
2022/05/09 04:18:26;;;;;;;13.47;12.27;;;10.30;99.00;;;;;;5096709;28;20466;-44
2022/05/09 04:20:51;;;;;;;13.13;12.03;;;10.30;99.00;;;;;;5096872;28;20449;-44
2022/05/09 04:23:18;;;;;;;14.10;12.90;;;10.30;99.00;;;;;;5097344;28;20427;-44
2022/05/09 04:25:45;;;;;;;12.77;11.67;;;10.30;99.00;;;;;;5098032;28;20422;-44
2022/05/09 04:28:11;;;;;;;13.60;12.50;;;10.30;99.10;;;;;;5097927;28;20435;-44
2022/05/09 04:30:38;;;;;;;12.77;11.67;;;10.30;99.10;;;;;;5097885;28;20914;-44
2022/05/09 04:33:06;;;;;;;14.33;13.03;;;10.30;99.20;;;;;;5097578;28;20478;-44
2022/05/09 04:35:36;;;;;;;13.90;12.70;;;10.40;99.10;;;;;;5096789;28;20828;-44
2022/05/09 04:38:02;;;;;;;14.77;13.20;;;10.40;99.10;;;;;;5096649;28;20438;-43
2022/05/09 04:40:30;;;;;;;13.50;12.23;;;10.40;99.00;;;;;;5097452;28;20414;-43
2022/05/09 04:42:57;;;;;;;13.70;12.60;;;10.50;99.00;;;;;;5097350;28;20438;-44
2022/05/09 04:45:24;;;;;;;14.10;13.00;;;10.50;99.00;;;;;;5097786;28;20422;-45
2022/05/09 04:47:50;;;;;;;14.03;12.83;;;10.50;99.00;;;;;;5096317;28;20421;-43
2022/05/09 04:50:19;;;;;;;14.30;12.90;;;10.60;99.00;;;;;;5097094;28;20622;-44
2022/05/09 04:52:45;;;;;;;14.30;13.10;;;10.60;98.90;;;;;;5097868;28;20536;-44
2022/05/09 04:55:12;;;;;;;15.10;13.70;;;10.70;98.90;;;;;;5096595;28;20414;-44
2022/05/09 04:57:38;;;;;;;14.20;12.93;;;10.80;98.80;;;;;;5095247;28;20197;-44
2022/05/09 05:00:15;;;;;;;14.77;13.57;;;10.80;98.70;;;;;;5095224;28;20438;-44
2022/05/09 05:02:41;;;;;;;14.73;13.30;;;10.90;98.80;;;;;;5077227;28;20908;-43
2022/05/09 05:05:07;;;;;;;15.07;13.67;;;10.90;98.70;;;;;;5095282;28;20428;-44
2022/05/09 05:07:33;;;;;;;14.50;13.30;;;11.00;98.70;;;;;;5094941;28;20196;-44
2022/05/09 05:10:01;;;;;;;14.50;13.27;;;11.00;98.70;;;;;;5095471;28;20415;-44
2022/05/09 05:12:27;;;;;;;15.80;14.40;;;11.10;98.60;;;;;;5094860;28;20524;-44
2022/05/09 05:14:52;;;;;;;14.80;13.40;;;11.20;98.60;;;;;;5094322;28;20735;-43
2022/05/09 05:17:18;;;;;;;15.07;13.77;;;11.20;98.50;;;;;;5093241;28;20571;-44
2022/05/09 05:19:44;;;;;;;15.17;13.90;;;11.30;98.40;;;;;;5093486;28;20187;-44
2022/05/09 05:22:15;;;;;;;13.20;12.10;;;11.30;98.40;;;;;;5093768;28;20211;-44
2022/05/09 05:24:45;;;;;;;17.00;15.47;;;11.40;98.50;;;;;;5077060;28;20423;-44
2022/05/09 05:27:12;;;;;;;15.10;13.70;;;11.50;98.60;;;;;;5094381;28;20832;-43
2022/05/09 05:29:38;;;;;;;15.40;14.10;;;11.60;98.70;;;;;;5095298;28;20415;-43
2022/05/09 05:32:19;;;;;;;15.67;14.30;;;11.60;98.50;;;;;;5093667;28;20487;-44
2022/05/09 05:34:46;;;;;;;15.70;14.37;;;11.70;98.50;;;;;;5074955;28;20448;-45
2022/05/09 05:37:11;;;;;;;16.20;14.87;;;11.80;98.90;;;;;;5072425;28;20493;-44
2022/05/09 05:39:37;;;;;;;15.13;13.83;;;12.00;98.70;;;;;;5071849;28;20457;-44
2022/05/09 05:42:07;;;;;;;15.40;14.10;;;12.10;99.00;;;;;;5072026;28;20264;-44
2022/05/09 05:44:33;;;;;;;16.30;14.90;;;12.20;98.70;;;;;;5074219;28;20427;-44
2022/05/09 05:46:59;;;;;;;15.80;14.30;;;12.30;98.60;;;;;;5072536;28;20433;-44
2022/05/09 05:49:25;;;;;;;15.07;13.83;;;12.50;98.60;;;;;;5082392;28;20974;-44
2022/05/09 05:51:50;;;;;;;15.90;14.50;;;12.60;98.40;;;;;;5091963;28;20268;-44
2022/05/09 05:54:16;;;;;;;16.83;15.33;;;12.80;98.30;;;;;;5076047;28;20316;-44
2022/05/09 05:56:41;;;;;;;16.67;15.07;;;12.90;98.00;;;;;;5095048;28;20183;-44
2022/05/09 05:59:08;;;;;;;16.23;14.73;;;13.10;97.90;;;;;;5094543;28;20250;-44
2022/05/09 06:01:33;;;;;;;17.23;15.73;;;13.30;97.80;;;;;;5093909;28;20185;-44
2022/05/09 06:04:00;;;;;;;16.43;15.03;;;13.40;97.50;;;;;;5093274;28;20418;-44
2022/05/09 06:06:26;;;;;;;17.27;15.50;;;13.50;97.50;;;;;;5092812;28;20419;-44
2022/05/09 06:08:52;;;;;;;14.67;13.50;;;13.70;97.30;;;;;;5093969;28;20407;-44
2022/05/09 06:11:18;;;;;;;15.17;13.97;;;13.90;97.30;;;;;;5075954;28;20264;-44
2022/05/09 06:13:43;;;;;;;17.23;15.83;;;14.10;97.20;;;;;;5094762;28;20558;-44
2022/05/09 06:16:10;;;;;;;15.90;14.40;;;14.30;96.70;;;;;;5094121;28;20177;-44
2022/05/09 06:18:36;;;;;;;15.40;14.10;;;14.50;96.80;;;;;;5096277;28;20265;-44
2022/05/09 06:21:03;;;;;;;17.10;15.57;;;14.60;96.70;;;;;;5094332;28;20472;-44
2022/05/09 06:23:29;;;;;;;14.90;13.70;;;14.80;96.30;;;;;;5076070;28;20434;-44
2022/05/09 06:25:56;;;;;;;17.77;16.07;;;15.00;96.20;;;;;;5094592;28;20815;-44
2022/05/09 06:28:23;;;;;;;14.77;13.47;;;15.20;96.00;;;;;;5094171;28;20434;-44
2022/05/09 06:30:49;;;;;;;15.97;14.57;;;15.40;96.00;;;;;;5094243;28;20466;-44
2022/05/09 06:33:25;;;;;;;14.57;13.37;;;15.60;95.10;;;;;;5094660;28;20600;-44
2022/05/09 06:35:52;;;;;;;15.87;14.47;;;15.70;94.70;;;;;;5094015;28;20408;-44
2022/05/09 06:38:19;;;;;;;15.40;13.90;;;15.90;94.60;;;;;;5094673;28;20526;-44
2022/05/09 06:40:45;;;;;;;13.57;12.43;;;16.10;94.90;;;;;;5096683;28;20436;-44
2022/05/09 06:43:11;;;;;;;14.17;12.80;;;16.30;95.10;;;;;;5096997;28;20432;-45
2022/05/09 06:45:37;;;;;;;13.40;12.30;;;16.50;95.10;;;;;;5097877;28;20413;-45
2022/05/09 06:48:03;;;;;;;12.07;11.07;;;16.70;93.90;;;;;;5079560;28;20435;-45
2022/05/09 06:50:34;;;;;;;11.40;10.40;;;16.90;93.40;;;;;;5097843;28;20643;-44
2022/05/09 06:53:01;;;;;;;12.47;11.37;;;17.00;92.70;;;;;;5098461;28;20482;-44
2022/05/09 06:55:27;;;;;;;11.87;10.87;;;17.20;92.50;;;;;;5080094;28;20430;-45
2022/05/09 06:57:52;;;;;;;11.20;10.10;;;17.40;92.50;;;;;;5098176;28;20893;-45
2022/05/09 07:00:21;;;;;;;12.23;11.13;;;17.60;92.80;;;;;;5098203;28;20174;-45
2022/05/09 07:02:47;;;;;;;12.10;11.10;;;17.80;92.80;;;;;;5097491;28;20442;-48
2022/05/09 07:05:15;;;;;;;11.13;10.13;;;18.00;91.70;;;;;;5081332;28;20477;-48
2022/05/09 07:07:42;;;;;;;10.70;9.90;;;18.20;91.80;;;;;;5099368;28;20432;-48
2022/05/09 07:10:08;;;;;;;10.53;9.73;;;18.30;91.00;;;;;;5098791;28;20926;-48
2022/05/09 07:12:46;;;;;;;10.97;9.97;;;18.50;90.70;;;;;;5097944;28;20581;-48
2022/05/09 07:15:14;;;;;;;10.27;9.33;;;18.70;88.50;;;;;;5097604;28;20458;-48
2022/05/09 07:17:40;;;;;;;9.37;8.47;;;18.80;88.30;;;;;;5096228;28;20431;-48
2022/05/09 07:20:06;;;;;;;8.70;7.70;;;19.00;89.30;;;;;;5080013;28;20490;-48
2022/05/09 07:22:32;;;;;;;10.50;9.70;;;19.30;88.60;;;;;;5098167;28;20850;-48
2022/05/09 07:24:57;;;;;;;10.03;8.70;;;19.70;88.20;;;;;;5099334;28;20481;-48
2022/05/09 07:27:23;;;;;;;10.30;9.40;;;19.90;87.60;;;;;;5098295;28;20268;-48
2022/05/09 07:29:49;;;;;;;9.50;8.60;;;20.20;86.60;;;;;;5098645;28;20483;-48
2022/05/09 07:32:14;;;;;;;10.33;9.33;;;20.40;82.30;;;;;;5098824;28;20190;-47
2022/05/09 07:34:40;;;;;;;9.60;8.80;;;20.40;80.30;;;;;;5099494;28;20198;-47
2022/05/09 07:37:06;;;;;;;8.40;7.70;;;20.40;80.70;;;;;;5097796;28;20173;-48
2022/05/09 07:39:31;;;;;;;8.13;7.53;;;20.60;81.50;;;;;;5079733;28;20171;-47
2022/05/09 07:41:58;;;;;;;9.30;8.40;;;20.90;81.60;;;;;;5096832;28;20238;-48
2022/05/09 07:44:23;;;;;;;8.07;7.37;;;21.10;79.90;;;;;;5097526;28;20177;-48
2022/05/09 07:46:49;;;;;;;9.30;8.33;;;21.30;78.10;;;;;;5097660;28;20732;-48
2022/05/09 07:49:15;;;;;;;8.10;7.40;;;21.50;77.20;;;;;;5080181;28;20187;-47
2022/05/09 07:51:41;;;;;;;9.57;8.63;;;21.80;77.30;;;;;;5080728;28;20566;-47
2022/05/09 07:54:07;;;;;;;8.63;7.93;;;22.10;75.50;;;;;;5099251;28;20466;-47
2022/05/09 07:56:33;;;;;;;8.10;7.50;;;22.30;72.90;;;;;;5098829;28;20241;-48
2022/05/09 07:58:59;;;;;;;8.37;7.77;;;22.40;70.90;;;;;;5098610;28;20408;-48
2022/05/09 08:01:25;;;;;;;8.83;8.13;;;22.60;71.30;;;;;;5098109;28;20569;-48
2022/05/09 08:03:51;;;;;;;9.47;8.57;;;22.80;71.20;;;;;;5097243;28;20410;-47
2022/05/09 08:06:17;;;;;;;8.57;7.77;;;23.00;69.70;;;;;;5096582;28;20994;-47
2022/05/09 08:08:43;;;;;;;8.00;7.40;;;23.20;69.50;;;;;;5097830;28;20246;-48
2022/05/09 08:11:11;;;;;;;7.30;6.80;;;23.50;68.20;;;;;;5098168;28;20175;-47
2022/05/09 08:13:39;;;;;;;10.13;9.20;;;23.70;66.40;;;;;;5096800;28;20567;-48
2022/05/09 08:16:06;;;;;;;8.27;7.60;;;23.80;64.10;;;;;;5097778;28;20439;-47
2022/05/09 08:18:32;;;;;;;10.40;9.70;;;24.00;63.80;;;;;;5096484;28;20440;-48
2022/05/09 08:20:59;;;;;;;9.33;8.40;;;24.10;62.30;;;;;;5096061;28;20777;-47
2022/05/09 08:23:26;;;;;;;7.50;6.93;;;24.10;62.00;;;;;;5096673;28;20748;-48
2022/05/09 08:25:52;;;;;;;7.80;7.10;;;24.10;60.20;;;;;;5097712;28;20408;-48
2022/05/09 08:28:18;;;;;;;10.10;7.67;;;24.10;59.00;;;;;;5097961;28;20423;-47
2022/05/09 08:30:44;;;;;;;10.40;9.47;;;23.90;57.40;;;;;;5077832;28;20242;-47
2022/05/09 08:33:15;;;;;;;9.13;8.43;;;23.40;57.80;;;;;;5094371;28;20472;-47
2022/05/09 08:35:43;;;;;;;8.97;8.17;;;23.10;57.60;;;;;;5095318;28;20218;-47
2022/05/09 08:38:09;;;;;;;9.87;9.03;;;22.80;58.40;;;;;;5095407;28;20426;-47
2022/05/09 08:41:15;;;;;;;9.63;8.83;;;22.50;59.20;;;;;;5094412;28;21076;-47
2022/05/09 08:43:45;;;;;;;10.20;9.40;;;22.30;59.70;;;;;;5095087;28;20473;-47
2022/05/09 08:46:18;;;;;;;9.17;8.30;;;22.20;60.30;;;;;;5095040;28;20459;-47
2022/05/09 08:48:44;;;;;;;7.70;7.10;;;22.30;60.90;;;;;;5097086;28;20426;-47
2022/05/09 08:51:29;;;;;;;8.67;7.97;;;22.70;61.90;;;;;;5095559;28;20495;-47
2022/05/09 08:54:05;;;;;;;9.77;8.67;;;23.30;59.40;;;;;;5078422;28;21046;-47
2022/05/09 08:56:31;;;;;;;8.43;7.73;;;23.60;58.70;;;;;;5079095;28;20494;-47
2022/05/09 08:59:04;;;;;;;8.20;7.50;;;24.00;60.20;;;;;;5078761;28;20518;-47
2022/05/09 09:01:48;;;;;;;9.37;7.20;;;24.50;58.60;;;;;;5078381;28;20434;-48
2022/05/09 09:04:26;;;;;;;8.13;7.47;;;24.50;56.50;;;;;;5080113;28;20786;-48
2022/05/09 09:07:00;;;;;;;8.37;7.63;;;24.70;57.90;;;;;;5080219;28;20429;-48
2022/05/09 09:09:38;;;;;;;7.87;7.10;;;25.00;56.90;;;;;;5079403;28;20753;-48
2022/05/09 09:12:13;;;;;;;8.07;7.47;;;25.10;56.80;;;;;;5096132;28;20799;-48
2022/05/09 09:15:08;;;;;;;6.90;6.43;;;25.60;57.20;;;;;;5078369;28;20957;-47
2022/05/09 09:18:09;;;;;;;8.03;7.30;;;26.10;56.10;;;;;;5095332;28;20434;-47
2022/05/09 09:21:07;;;;;;;7.77;7.17;;;26.80;55.60;;;;;;5095647;28;20402;-48
2022/05/09 09:23:38;;;;;;;6.00;5.60;;;27.30;51.20;;;;;;5077600;28;20472;-48
2022/05/09 09:26:20;;;;;;;7.00;6.50;;;27.50;51.70;;;;;;5059216;28;20407;-47
2022/05/09 09:29:15;;;;;;;8.07;7.33;;;27.60;50.50;;;;;;5076648;28;20867;-47
2022/05/09 09:31:48;;;;;;;8.37;7.67;;;27.90;50.90;;;;;;5092966;28;20910;-48
2022/05/09 09:34:49;;;;;;;7.40;6.67;;;28.20;48.90;;;;;;5095586;28;20458;-47
2022/05/09 09:37:24;;;;;;;8.23;7.53;;;28.30;48.90;;;;;;5077245;28;20412;-47
2022/05/09 09:39:49;;;;;;;7.07;6.53;;;28.50;48.00;;;;;;5096500;28;20421;-48
2022/05/09 09:42:15;;;;;;;6.77;6.27;;;28.60;48.00;;;;;;5095464;28;20418;-47
2022/05/09 09:44:45;;;;;;;7.47;6.93;;;28.80;47.60;;;;;;5094349;28;20234;-47
2022/05/09 09:47:19;;;;;;;8.40;7.57;;;29.00;47.50;;;;;;5094335;28;20187;-48
2022/05/09 09:49:49;;;;;;;6.93;6.33;;;29.20;46.80;;;;;;5094344;28;20456;-47
2022/05/09 09:52:29;;;;;;;7.70;7.10;;;29.00;46.20;;;;;;5094618;28;20687;-47
2022/05/09 09:55:09;;;;;;;7.43;6.77;;;29.10;46.70;;;;;;5094752;28;20464;-48
2022/05/09 09:57:36;;;;;;;10.03;9.33;;;29.00;46.00;;;;;;5095493;28;20540;-48
2022/05/09 10:00:35;;;;;;;7.53;6.93;;;29.10;44.90;;;;;;5095315;28;20387;-48
2022/05/09 10:03:20;;;;;;;7.50;7.00;;;28.80;46.00;;;;;;5066469;28;20429;-48
2022/05/09 10:05:47;;;;;;;7.20;6.70;;;29.20;46.30;;;;;;5095848;28;20421;-48
2022/05/09 10:08:31;;;;;;;6.67;6.23;;;29.50;44.40;;;;;;5077022;28;20415;-48
2022/05/09 10:11:04;;;;;;;7.53;7.03;;;29.80;45.30;;;;;;5096310;28;20509;-49
2022/05/09 10:13:34;;;;;;;7.70;7.10;;;30.30;44.20;;;;;;5100087;28;20469;-49
2022/05/09 10:16:08;;;;;;;7.10;6.37;;;30.40;42.70;;;;;;5082298;28;20385;-48
2022/05/09 10:18:34;;;;;;;10.30;7.93;;;30.40;42.90;;;;;;5100357;28;20533;-49
2022/05/09 10:21:10;;;;;;;7.60;7.00;;;30.10;41.70;;;;;;5099222;28;20939;-49
2022/05/09 10:26:32;;;;;;;9.27;8.47;;;28.70;42.00;;;;;;5097413;28;20923;-43
2022/05/09 10:29:02;;;;;;;8.90;8.17;;;27.50;43.70;;;;;;5097972;28;20406;-42
2022/05/09 10:31:55;;;;;;;9.27;8.40;;;27.00;44.30;;;;;;5081012;28;20236;-40
2022/05/09 10:34:33;;;;;;;8.60;7.80;;;26.80;44.90;;;;;;5077420;28;20470;-40
2022/05/09 10:37:37;;;;;;;8.73;8.10;;;26.80;45.80;;;;;;5063576;28;20433;-40
2022/05/09 10:40:26;;;;;;;8.30;7.70;;;27.10;45.00;;;;;;5081512;28;20808;-40
2022/05/09 10:43:21;;;;;;;8.43;7.50;;;27.20;45.10;;;;;;5081117;28;20419;-42
2022/05/09 10:45:50;;;;;;;8.10;7.50;;;27.80;45.80;;;;;;5008437;28;20469;-43
2022/05/09 10:48:29;;;;;;;8.50;7.80;;;28.50;45.50;;;;;;5098181;28;20422;-42
2022/05/09 10:50:57;;;;;;;8.07;7.47;;;29.50;44.10;;;;;;5081326;28;20814;-41
2022/05/09 10:53:32;;;;;;;7.90;7.27;;;30.10;42.20;;;;;;5097543;28;20504;-39
2022/05/09 10:56:24;;;;;;;7.70;7.00;;;30.00;41.60;;;;;;5097738;28;20496;-42
2022/05/09 10:59:09;;;;;;;7.57;6.93;;;29.60;41.30;;;;;;5097500;28;20669;-39
2022/05/09 11:01:51;;;;;;;7.97;7.27;;;29.50;42.70;;;;;;5097169;28;20458;-41
2022/05/09 11:04:18;;;;;;;7.37;6.90;;;29.30;43.00;;;;;;5080684;28;20514;-42
2022/05/09 11:06:53;;;;;;;8.13;7.43;;;29.30;43.00;;;;;;5097157;28;20445;-40
2022/05/09 11:09:30;;;;;;;8.70;8.10;;;29.50;42.70;;;;;;5097164;28;20418;-43
2022/05/09 11:11:56;;;;;;;8.37;7.77;;;29.60;43.30;;;;;;5098532;28;20442;-41
2022/05/09 11:14:39;;;;;;;9.60;8.90;;;30.00;44.00;;;;;;5098419;28;20887;-40
2022/05/09 11:17:15;;;;;;;8.27;7.57;;;30.20;42.80;;;;;;5097491;28;20182;-41
2022/05/09 11:20:07;;;;;;;9.07;8.37;;;29.90;42.30;;;;;;5080050;28;20475;-40
2022/05/09 11:22:43;;;;;;;8.10;7.50;;;28.90;42.10;;;;;;5080395;28;20424;-40
2022/05/09 11:25:30;;;;;;;8.20;7.60;;;28.20;42.80;;;;;;5077686;28;20831;-40
2022/05/09 11:28:03;;;;;;;8.80;8.17;;;27.70;44.00;;;;;;5094807;28;20432;-40
2022/05/09 11:30:29;;;;;;;9.67;8.97;;;27.10;43.90;;;;;;5095581;28;20764;-40
2022/05/09 11:33:22;;;;;;;9.03;8.13;;;26.70;44.60;;;;;;5096185;28;20485;-38
2022/05/09 11:35:54;;;;;;;7.87;7.27;;;26.70;43.80;;;;;;5097689;28;20248;-40
2022/05/09 11:38:26;;;;;;;9.40;8.67;;;27.20;44.20;;;;;;5078274;28;21058;-38
2022/05/09 11:41:17;;;;;;;7.80;7.20;;;27.80;42.30;;;;;;5078785;28;20417;-39
2022/05/09 11:44:08;;;;;;;8.20;7.60;;;27.90;42.50;;;;;;5096546;28;20748;-40
2022/05/09 11:47:04;;;;;;;8.07;7.47;;;28.60;41.80;;;;;;5095473;28;21144;-41
2022/05/09 11:50:03;;;;;;;7.70;7.10;;;28.80;41.70;;;;;;5050730;28;20446;-42
2022/05/09 11:52:42;;;;;;;8.90;8.10;;;28.30;41.40;;;;;;5095918;28;20415;-40
2022/05/09 11:55:18;;;;;;;7.67;7.17;;;28.10;42.10;;;;;;5095952;28;20406;-41
2022/05/09 11:57:46;;;;;;;8.33;7.67;;;28.10;43.30;;;;;;5061732;28;20429;-38
2022/05/09 12:00:33;;;;;;;7.27;6.77;;;28.20;42.50;;;;;;5079112;28;20453;-40
2022/05/09 12:03:00;;;;;;;8.83;7.80;;;28.00;42.00;;;;;;5086597;28;20525;-39
2022/05/09 12:05:26;;;;;;;6.97;6.37;;;27.80;42.90;;;;;;5097350;28;20754;-40
2022/05/09 12:08:04;;;;;;;8.07;7.47;;;28.00;44.00;;;;;;5097383;28;20495;-40
2022/05/09 12:10:35;;;;;;;7.77;7.27;;;28.80;43.60;;;;;;5096755;28;20181;-40
2022/05/09 12:13:19;;;;;;;8.13;7.43;;;28.80;41.50;;;;;;5079336;28;20502;-41
2022/05/09 12:15:53;;;;;;;8.10;7.50;;;28.60;42.00;;;;;;5095991;28;20524;-42
2022/05/09 12:18:29;;;;;;;7.33;6.60;;;28.60;42.80;;;;;;5095583;28;20419;-42
2022/05/09 12:20:55;;;;;;;9.57;7.90;;;29.40;43.20;;;;;;5077559;28;20450;-39
2022/05/09 12:23:36;;;;;;;6.73;6.13;;;30.30;40.70;;;;;;5095239;28;20438;-39
2022/05/09 12:26:05;;;;;;;7.00;6.50;;;30.40;39.30;;;;;;5095438;28;20423;-42
2022/05/09 12:28:33;;;;;;;7.23;6.73;;;30.70;38.40;;;;;;5095436;28;20770;-42
2022/05/09 12:31:04;;;;;;;7.73;7.13;;;31.20;39.40;;;;;;5096234;28;20497;-44
2022/05/09 12:33:38;;;;;;;7.77;7.27;;;31.80;39.40;;;;;;5097011;28;20475;-40
2022/05/09 12:36:06;;;;;;;8.30;7.70;;;32.60;38.60;;;;;;5078751;28;20795;-41
2022/05/09 12:38:35;;;;;;;8.60;7.80;;;32.70;36.10;;;;;;5096822;28;20774;-41
2022/05/09 12:41:25;;;;;;;7.93;7.33;;;32.30;36.00;;;;;;5096863;28;20414;-41
2022/05/09 12:43:56;;;;;;;7.37;6.83;;;32.00;37.60;;;;;;5097953;28;20429;-40
2022/05/09 12:46:44;;;;;;;7.60;7.00;;;32.50;37.30;;;;;;5098385;28;20404;-42
2022/05/09 12:49:11;;;;;;;7.20;6.70;;;33.00;36.20;;;;;;5079793;28;20395;-42
2022/05/09 12:51:45;;;;;;;7.50;6.90;;;32.80;35.70;;;;;;5097754;28;20681;-42
2022/05/09 12:54:14;;;;;;;10.30;7.60;;;32.60;36.40;;;;;;5097529;28;20565;-40
2022/05/09 12:56:52;;;;;;;8.10;7.50;;;32.00;35.70;;;;;;5097034;28;20427;-39
2022/05/09 12:59:18;;;;;;;7.57;7.07;;;31.50;36.60;;;;;;5095746;28;20826;-40
2022/05/09 13:01:55;;;;;;;7.67;6.80;;;31.30;37.50;;;;;;5077406;28;21000;-44